San Francisco Belle — WDA2499 — position and weather

sailwx.info

Track history (hours):
 
Tides and Currents Weather Stations Pressure Air Temp Water Temp Dewpoint Dewpoint Depression Visibility Wind Speed Wind Dir Waves Ship Positions

San Francisco Belle

Owner: HORNBLOWER CRUISES AND EVENTS, SAN FRANCISCO, CA. More information available from US FCC via Universal Licensing System and Coast Guard Vessel Documentation Center.

Last reported at 2017-Dec-10 08:15 UTC. Time now 2017-Dec-12 19:56 UTC.
Position N 37°48' W 122°24'.

Length 67 m; draft 2.1 m.

Type: Passenger vessel. MMSI: 367006980.

Date/timePositionNaut miles runAvg speedWind from/ knotsBaromVisibWave heightAir tempDewpointWater temp
2017-Dec-10 08:15N 37°48' W 122°24'0 0.2
2017-Dec-10 08:00N 37°48' W 122°24'1 2.4
2017-Dec-10 07:30N 37°47' W 122°23'1 2.3
2017-Dec-10 07:00N 37°48' W 122°24'0 0.0
2017-Dec-10 06:30N 37°48' W 122°24'0 0.0
2017-Dec-10 06:00N 37°48' W 122°24'0 0.0
2017-Dec-10 05:30N 37°48' W 122°24'0 0.0
2017-Dec-10 05:00N 37°48' W 122°24'0 0.0
2017-Dec-10 04:30N 37°48' W 122°24'0 0.0
2017-Dec-10 04:00N 37°48' W 122°24'0 0.0
2017-Dec-10 03:30N 37°48' W 122°24'0 0.0
2017-Dec-10 03:00N 37°48' W 122°24'0 0.0
2017-Dec-10 02:30N 37°48' W 122°24'0 0.0
2017-Dec-10 02:00N 37°48' W 122°24'0 0.0
2017-Dec-10 01:30N 37°48' W 122°24'0 0.0
2017-Dec-09 06:33N 37°48' W 122°24'0 0.0
2017-Dec-09 06:31N 37°48' W 122°24'0 0.5
2017-Dec-09 06:00N 37°48' W 122°23'1 3.0
2017-Dec-09 05:31N 37°49' W 122°25'2 3.9
2017-Dec-09 05:01N 37°50' W 122°27'1 3.0
2017-Dec-09 04:30N 37°49' W 122°29'3 6.8
2017-Dec-09 04:01N 37°49' W 122°25'1 2.5
2017-Dec-09 03:31N 37°48' W 122°24'0 0.0
2017-Dec-09 03:00N 37°48' W 122°24'0 0.0
2017-Dec-09 02:30N 37°48' W 122°24'0 0.0
2017-Dec-09 02:01N 37°48' W 122°24'  
2017-Dec-02 06:52N 37°48' W 122°24'0 0.0
2017-Dec-02 06:30N 37°48' W 122°24'1 1.6
2017-Dec-02 06:00N 37°47' W 122°23'2 4.7
2017-Dec-02 05:30N 37°49' W 122°25'3 5.9
2017-Dec-02 05:01N 37°49' W 122°28'2 3.4
2017-Dec-02 04:31N 37°49' W 122°26'2 4.0
2017-Dec-02 04:01N 37°49' W 122°24'1 1.4
2017-Dec-02 03:31N 37°48' W 122°24'0 0.1
2017-Dec-02 03:01N 37°48' W 122°24'0 0.0
2017-Dec-02 02:31N 37°48' W 122°24'0 0.0
2017-Dec-02 02:01N 37°48' W 122°24'0 0.0
2017-Dec-02 01:31N 37°48' W 122°24'0 0.0
2017-Dec-02 01:01N 37°48' W 122°24'0 0.0
2017-Dec-02 00:31N 37°48' W 122°24'0 0.0
2017-Dec-02 00:00N 37°48' W 122°24'  
Track history (hours):
 
Tides and Currents Weather Stations Pressure Air Temp Water Temp Dewpoint Dewpoint Depression Visibility Wind Speed Wind Dir Waves Ship Positions

San Francisco Belle

Owner: HORNBLOWER CRUISES AND EVENTS, SAN FRANCISCO, CA. More information available from US FCC via Universal Licensing System and Coast Guard Vessel Documentation Center.

Last reported at 2017-Dec-10 08:15 UTC. Time now 2017-Dec-12 19:56 UTC.
Position N 37°48' W 122°24'.

Length 67 m; draft 2.1 m.

Type: Passenger vessel. MMSI: 367006980.

Date/timePositionNaut miles runAvg speedWind from/ knotsBaromVisibWave heightAir tempDewpointWater temp
2017-Dec-10 08:15N 37°48' W 122°24'0 0.2
2017-Dec-10 08:00N 37°48' W 122°24'1 2.4
2017-Dec-10 07:30N 37°47' W 122°23'1 2.3
2017-Dec-10 07:00N 37°48' W 122°24'0 0.0
2017-Dec-10 06:30N 37°48' W 122°24'0 0.0
2017-Dec-10 06:00N 37°48' W 122°24'0 0.0
2017-Dec-10 05:30N 37°48' W 122°24'0 0.0
2017-Dec-10 05:00N 37°48' W 122°24'0 0.0
2017-Dec-10 04:30N 37°48' W 122°24'0 0.0
2017-Dec-10 04:00N 37°48' W 122°24'0 0.0
2017-Dec-10 03:30N 37°48' W 122°24'0 0.0
2017-Dec-10 03:00N 37°48' W 122°24'0 0.0
2017-Dec-10 02:30N 37°48' W 122°24'0 0.0
2017-Dec-10 02:00N 37°48' W 122°24'0 0.0
2017-Dec-10 01:30N 37°48' W 122°24'0 0.0
2017-Dec-09 06:33N 37°48' W 122°24'0 0.0
2017-Dec-09 06:31N 37°48' W 122°24'0 0.5
2017-Dec-09 06:00N 37°48' W 122°23'1 3.0
2017-Dec-09 05:31N 37°49' W 122°25'2 3.9
2017-Dec-09 05:01N 37°50' W 122°27'1 3.0
2017-Dec-09 04:30N 37°49' W 122°29'3 6.8
2017-Dec-09 04:01N 37°49' W 122°25'1 2.5
2017-Dec-09 03:31N 37°48' W 122°24'0 0.0
2017-Dec-09 03:00N 37°48' W 122°24'0 0.0
2017-Dec-09 02:30N 37°48' W 122°24'0 0.0
2017-Dec-09 02:01N 37°48' W 122°24'  
2017-Dec-02 06:52N 37°48' W 122°24'0 0.0
2017-Dec-02 06:30N 37°48' W 122°24'1 1.6
2017-Dec-02 06:00N 37°47' W 122°23'2 4.7
2017-Dec-02 05:30N 37°49' W 122°25'3 5.9
2017-Dec-02 05:01N 37°49' W 122°28'2 3.4
2017-Dec-02 04:31N 37°49' W 122°26'2 4.0
2017-Dec-02 04:01N 37°49' W 122°24'1 1.4
2017-Dec-02 03:31N 37°48' W 122°24'0 0.1
2017-Dec-02 03:01N 37°48' W 122°24'0 0.0
2017-Dec-02 02:31N 37°48' W 122°24'0 0.0
2017-Dec-02 02:01N 37°48' W 122°24'0 0.0
2017-Dec-02 01:31N 37°48' W 122°24'0 0.0
2017-Dec-02 01:01N 37°48' W 122°24'0 0.0
2017-Dec-02 00:31N 37°48' W 122°24'0 0.0
2017-Dec-02 00:00N 37°48' W 122°24'  

Dump ship's entire track history